createdAt,value
2022-09-15T00:08:59.461Z,4.6
2022-09-15T00:19:07.337Z,4.61
2022-09-15T00:29:14.808Z,3.9
2022-09-15T00:39:22.219Z,4.14
2022-09-15T00:49:29.633Z,4.47
2022-09-15T00:59:49.391Z,4.95
2022-09-15T01:09:46.729Z,5.12
2022-09-15T01:19:53.286Z,4.49
2022-09-15T01:29:59.806Z,4.84
2022-09-15T01:40:06.411Z,5.27
2022-09-15T01:50:13.831Z,5.18
2022-09-15T02:00:21.399Z,4.9
2022-09-15T02:10:28.954Z,4.72
2022-09-15T02:20:36.398Z,4.88
2022-09-15T02:30:43.830Z,4.2
2022-09-15T02:40:51.166Z,4.12
2022-09-15T02:50:58.556Z,3.78
2022-09-15T03:01:06.120Z,3.8
2022-09-15T03:11:13.484Z,3.74
2022-09-15T03:21:20.981Z,3.32
2022-09-15T03:31:28.498Z,4.42
2022-09-15T03:41:35.855Z,3.96
2022-09-15T03:51:43.346Z,4.21
2022-09-15T04:01:50.798Z,3.44
2022-09-15T04:11:58.222Z,3.77
2022-09-15T04:22:05.683Z,3.08
2022-09-15T04:32:13.148Z,3.06
2022-09-15T04:42:21.703Z,3.08
2022-09-15T04:52:30.946Z,3.39
2022-09-15T05:02:38.424Z,5.08
2022-09-15T05:12:45.840Z,5.57
2022-09-15T05:22:54.517Z,5.45
2022-09-15T05:33:02.106Z,4.37
2022-09-15T05:43:10.489Z,4.33
2022-09-15T05:53:19.202Z,4.02
2022-09-15T06:03:30.723Z,4.08
2022-09-15T06:13:34.357Z,5.96
2022-09-15T06:23:50.601Z,7.56
2022-09-15T06:33:43.221Z,4.94
2022-09-15T06:43:51.798Z,4.27
2022-09-15T06:54:00.395Z,6.49
2022-09-15T07:04:09.153Z,6.66
2022-09-15T07:14:16.447Z,5.53
2022-09-15T07:24:23.912Z,7.39
2022-09-15T07:34:31.326Z,6.13
2022-09-15T07:44:40.050Z,5.6
2022-09-15T07:54:49.817Z,5.8
2022-09-15T08:04:57.425Z,6.59
2022-09-15T08:15:04.910Z,10.87
2022-09-15T08:45:16.900Z,24.71
2022-09-15T08:55:24.393Z,4.82
2022-09-15T09:05:32.973Z,3.21
2022-09-15T09:15:42.531Z,3.68
2022-09-15T09:25:49.970Z,2.78
2022-09-15T09:35:58.545Z,2.95
2022-09-15T09:46:09.653Z,3.28
2022-09-15T09:56:07.163Z,2.91
2022-09-15T10:06:14.627Z,2.35
2022-09-15T10:16:22.090Z,2.35
2022-09-15T10:26:29.592Z,2.15
2022-09-15T10:36:37.120Z,2.16
2022-09-15T10:46:43.813Z,2.57
2022-09-15T10:56:51.326Z,2.11
2022-09-15T11:07:00.060Z,2.04
2022-09-15T11:17:07.654Z,2.08
2022-09-15T11:27:15.228Z,1.91
2022-09-15T11:37:24.543Z,2.29
2022-09-15T11:47:32.046Z,1.66
2022-09-15T11:57:39.586Z,2.19
2022-09-15T12:07:47.169Z,2.18
2022-09-15T12:17:55.150Z,2.09
2022-09-15T12:28:02.634Z,3.32
2022-09-15T12:38:10.068Z,2.21
2022-09-15T12:48:17.792Z,2.04
2022-09-15T12:58:27.029Z,2.44
2022-09-15T13:08:34.552Z,2.18
2022-09-15T13:18:42.519Z,1.74
2022-09-15T13:28:51.671Z,1.84
2022-09-15T13:38:57.916Z,1.76
2022-09-15T13:49:05.474Z,1.85
2022-09-15T13:59:15.400Z,1.67
2022-09-15T14:09:18.679Z,1.91
2022-09-15T14:19:26.230Z,2.07
2022-09-15T14:29:33.790Z,1.89
2022-09-15T14:39:41.358Z,1.75
2022-09-15T14:49:50.592Z,1.88
2022-09-15T15:00:00.725Z,1.96
2022-09-15T15:09:58.279Z,1.74
2022-09-15T15:20:05.718Z,1.93
2022-09-15T15:30:14.347Z,2.02
2022-09-15T15:40:21.896Z,2.32
2022-09-15T15:50:29.280Z,2.25
2022-09-15T16:00:36.668Z,2.32
2022-09-15T16:10:44.188Z,2.22
2022-09-15T16:20:51.620Z,2.17
2022-09-15T16:30:59.212Z,2.46
2022-09-15T16:41:06.655Z,1.99
2022-09-15T16:51:29.686Z,2.2
2022-09-15T17:01:19.751Z,2.35
2022-09-15T17:11:27.417Z,2.4
2022-09-15T17:21:35.522Z,2.39
2022-09-15T17:31:43.094Z,3.29
2022-09-15T17:41:50.748Z,2.91
2022-09-15T17:51:58.227Z,2.85
2022-09-15T18:02:06.188Z,2.77
2022-09-15T18:12:16.135Z,2.74
2022-09-15T18:22:25.260Z,3.26
2022-09-15T18:32:35.891Z,2.67
2022-09-15T18:42:50.184Z,3.22
2022-09-15T18:52:37.767Z,2.88
2022-09-15T19:32:52.068Z,3.07
2022-09-15T19:53:00.929Z,3.51
2022-09-15T20:03:08.475Z,4.38
2022-09-15T20:23:17.400Z,3.68
2022-09-15T20:33:25.226Z,4
2022-09-15T20:53:34.895Z,5.18
2022-09-15T21:03:42.480Z,3.94
2022-09-15T21:13:49.888Z,6.87
2022-09-15T21:23:57.315Z,10.15
2022-09-15T21:34:04.832Z,13.12
2022-09-15T21:44:12.287Z,9.43
2022-09-15T21:54:19.894Z,7.8
2022-09-15T22:04:27.349Z,7.61
2022-09-15T22:14:34.757Z,9.52
2022-09-15T22:24:42.170Z,10.07
2022-09-15T22:34:49.655Z,11.32
2022-09-15T22:44:57.232Z,13.15
2022-09-15T22:55:04.548Z,13.45
2022-09-15T23:05:11.926Z,8.72
2022-09-15T23:15:19.533Z,6.71
2022-09-15T23:25:28.005Z,8.86
2022-09-15T23:35:35.438Z,10.87
2022-09-15T23:45:42.868Z,8.15
2022-09-15T23:55:50.378Z,6.9
